createdAt,value
2018-02-11T00:00:25.615Z,959.42
2018-02-11T00:01:25.539Z,959.40
2018-02-11T00:02:25.480Z,959.37
2018-02-11T00:03:25.420Z,959.35
2018-02-11T00:04:46.354Z,959.34
2018-02-11T00:05:25.291Z,959.34
2018-02-11T00:06:25.232Z,959.35
2018-02-11T00:07:25.170Z,959.29
2018-02-11T00:08:25.108Z,959.32
2018-02-11T00:09:25.051Z,959.28
2018-02-11T00:10:45.973Z,959.28
2018-02-11T00:11:24.920Z,959.26
2018-02-11T00:12:24.861Z,959.24
2018-02-11T00:13:24.797Z,959.22
2018-02-11T00:14:24.737Z,959.20
2018-02-11T00:15:24.674Z,959.19
2018-02-11T00:16:45.608Z,959.16
2018-02-11T00:17:24.551Z,959.12
2018-02-11T00:18:24.493Z,959.08
2018-02-11T00:19:24.426Z,959.04
2018-02-11T00:20:24.367Z,959.06
2018-02-11T00:21:24.300Z,959.05
2018-02-11T00:22:45.235Z,959.07
2018-02-11T00:23:24.205Z,959.04
2018-02-11T00:24:24.114Z,959.01
2018-02-11T00:25:24.058Z,959.03
2018-02-11T00:26:23.986Z,959.00
2018-02-11T00:27:23.927Z,959.05
2018-02-11T00:28:44.854Z,959.03
2018-02-11T00:29:23.804Z,959.05
2018-02-11T00:30:23.740Z,959.06
2018-02-11T00:31:23.687Z,959.02
2018-02-11T00:32:23.615Z,958.97
2018-02-11T00:33:23.557Z,958.99
2018-02-11T00:34:44.476Z,958.97
2018-02-11T00:35:23.430Z,958.97
2018-02-11T00:36:23.374Z,958.94
2018-02-11T00:37:23.306Z,958.94
2018-02-11T00:38:23.244Z,958.95
2018-02-11T00:39:23.192Z,958.96
2018-02-11T00:40:44.107Z,958.96
2018-02-11T00:41:23.057Z,958.94
2018-02-11T00:42:23.002Z,958.97
2018-02-11T00:43:22.930Z,958.97
2018-02-11T00:44:22.871Z,958.96
2018-02-11T00:45:22.810Z,958.92
2018-02-11T00:46:43.757Z,958.91
2018-02-11T00:47:22.683Z,958.90
2018-02-11T00:48:22.619Z,958.90
2018-02-11T00:49:22.559Z,958.92
2018-02-11T00:50:22.499Z,958.94
2018-02-11T00:51:22.435Z,958.93
2018-02-11T00:52:43.360Z,958.94
2018-02-11T00:53:22.309Z,958.92
2018-02-11T00:54:22.250Z,958.93
2018-02-11T00:55:22.184Z,958.96
2018-02-11T00:56:22.124Z,958.94
2018-02-11T00:57:22.064Z,958.95
2018-02-11T00:58:42.987Z,958.93
2018-02-11T00:59:21.941Z,958.92
2018-02-11T01:00:21.877Z,958.96
2018-02-11T01:01:21.812Z,958.94
2018-02-11T01:02:21.751Z,958.94
2018-02-11T01:03:21.690Z,958.87
2018-02-11T01:04:42.618Z,958.89
2018-02-11T01:05:21.567Z,958.86
2018-02-11T01:06:21.504Z,958.89
2018-02-11T01:07:21.439Z,958.94
2018-02-11T01:08:21.380Z,958.87
2018-02-11T01:09:21.315Z,958.91
2018-02-11T01:10:42.242Z,958.85
2018-02-11T01:11:21.191Z,958.86
2018-02-11T01:12:21.132Z,958.85
2018-02-11T01:13:21.068Z,958.84
2018-02-11T01:14:21.009Z,958.81
2018-02-11T01:15:20.944Z,958.78
2018-02-11T01:16:41.879Z,958.79
2018-02-11T01:17:20.826Z,958.83
2018-02-11T01:18:20.758Z,958.85
2018-02-11T01:19:20.699Z,958.77
2018-02-11T01:20:20.639Z,958.75
2018-02-11T01:21:20.571Z,958.76
2018-02-11T01:22:41.498Z,958.75
2018-02-11T01:23:20.447Z,958.74
2018-02-11T01:24:20.385Z,958.69
2018-02-11T01:25:20.332Z,958.72
2018-02-11T01:26:20.261Z,958.68
2018-02-11T01:27:20.201Z,958.69
2018-02-11T01:28:41.123Z,958.63
2018-02-11T01:29:20.076Z,958.61
2018-02-11T01:30:20.020Z,958.62
2018-02-11T01:31:19.955Z,958.62
2018-02-11T01:32:19.890Z,958.60
2018-02-11T01:33:19.831Z,958.55
2018-02-11T01:34:40.752Z,958.55
2018-02-11T01:35:19.707Z,958.60
2018-02-11T01:36:19.640Z,958.59
2018-02-11T01:37:19.577Z,958.57
2018-02-11T01:38:19.524Z,958.50
2018-02-11T01:39:19.449Z,958.50
2018-02-11T01:40:40.378Z,958.50
2018-02-11T01:41:19.334Z,958.44
2018-02-11T01:42:19.270Z,958.41
2018-02-11T01:43:19.205Z,958.39
2018-02-11T01:44:19.155Z,958.40
2018-02-11T01:45:19.078Z,958.37
2018-02-11T01:46:40.006Z,958.35
2018-02-11T01:47:18.955Z,958.38
2018-02-11T01:48:18.890Z,958.37
2018-02-11T01:49:18.827Z,958.36
2018-02-11T01:50:18.769Z,958.33
2018-02-11T01:51:18.707Z,958.35
2018-02-11T01:52:39.631Z,958.36
2018-02-11T01:53:18.580Z,958.30
2018-02-11T01:54:18.520Z,958.34
2018-02-11T01:55:18.456Z,958.32
2018-02-11T01:56:18.396Z,958.30
2018-02-11T01:57:18.335Z,958.30
2018-02-11T01:58:39.262Z,958.24
2018-02-11T01:59:18.206Z,958.25
2018-02-11T02:00:18.149Z,958.19
2018-02-11T02:01:18.083Z,958.20
2018-02-11T02:02:18.024Z,958.16
2018-02-11T02:03:17.967Z,958.13
2018-02-11T02:04:38.883Z,958.11
2018-02-11T02:05:17.840Z,958.11
2018-02-11T02:06:17.775Z,958.08
2018-02-11T02:07:17.711Z,958.03
2018-02-11T02:08:17.647Z,958.04
2018-02-11T02:09:17.588Z,958.02
2018-02-11T02:10:38.512Z,958.00
2018-02-11T02:11:17.465Z,957.98
2018-02-11T02:12:17.414Z,957.95
2018-02-11T02:13:17.339Z,957.96
2018-02-11T02:14:17.273Z,957.97
2018-02-11T02:15:17.213Z,957.96
2018-02-11T02:16:38.138Z,957.91
2018-02-11T02:17:17.085Z,957.87
2018-02-11T02:18:17.027Z,957.85
2018-02-11T02:19:16.977Z,957.89
2018-02-11T02:20:16.904Z,957.86
2018-02-11T02:21:16.838Z,957.88
2018-02-11T02:22:37.766Z,957.81
2018-02-11T02:23:16.717Z,957.81
2018-02-11T02:24:16.654Z,957.80
2018-02-11T02:25:16.592Z,957.78
2018-02-11T02:26:16.530Z,957.74
2018-02-11T02:27:16.466Z,957.77
2018-02-11T02:28:37.398Z,957.71
2018-02-11T02:29:16.340Z,957.72
2018-02-11T02:30:16.279Z,957.66
2018-02-11T02:31:16.221Z,957.66
2018-02-11T02:32:16.158Z,957.66
2018-02-11T02:33:16.093Z,957.64
2018-02-11T02:34:37.024Z,957.61
2018-02-11T02:35:15.970Z,957.50
2018-02-11T02:36:15.914Z,957.53
2018-02-11T02:37:15.856Z,957.50
2018-02-11T02:38:15.785Z,957.51
2018-02-11T02:39:15.732Z,957.49
2018-02-11T02:40:36.647Z,957.55
2018-02-11T02:41:15.595Z,957.50
2018-02-11T02:42:15.535Z,957.53
2018-02-11T02:43:15.471Z,957.52
2018-02-11T02:44:15.414Z,957.51
2018-02-11T02:45:15.345Z,957.52
2018-02-11T02:46:36.273Z,957.46
2018-02-11T02:47:15.223Z,957.44
2018-02-11T02:48:15.161Z,957.42
2018-02-11T02:49:15.100Z,957.38
2018-02-11T02:50:15.037Z,957.34
2018-02-11T02:51:14.978Z,957.32
2018-02-11T02:52:35.904Z,957.35
2018-02-11T02:53:14.853Z,957.34
2018-02-11T02:54:14.787Z,957.34
2018-02-11T02:55:14.725Z,957.35
2018-02-11T02:56:14.664Z,957.35
2018-02-11T02:57:14.600Z,957.35
2018-02-11T02:58:35.525Z,957.33
2018-02-11T02:59:14.476Z,957.33
2018-02-11T03:00:14.414Z,957.32
2018-02-11T03:01:14.351Z,957.30
2018-02-11T03:02:14.297Z,957.28
2018-02-11T03:03:14.227Z,957.27
2018-02-11T03:04:35.152Z,957.23
2018-02-11T03:05:14.103Z,957.25
2018-02-11T03:06:14.042Z,957.23
2018-02-11T03:07:13.979Z,957.20
2018-02-11T03:08:13.920Z,957.22
2018-02-11T03:09:13.857Z,957.17
2018-02-11T03:10:34.781Z,957.20
2018-02-11T03:11:13.728Z,957.15
2018-02-11T03:12:13.669Z,957.16
2018-02-11T03:13:13.606Z,957.18
2018-02-11T03:14:13.542Z,957.15
2018-02-11T03:15:13.483Z,957.08
2018-02-11T03:16:34.410Z,957.08
2018-02-11T03:17:13.355Z,956.99
2018-02-11T03:18:13.294Z,957.03
2018-02-11T03:19:13.235Z,956.98
2018-02-11T03:20:13.171Z,956.99
2018-02-11T03:21:13.108Z,957.00
2018-02-11T03:22:34.033Z,957.00
2018-02-11T03:23:12.987Z,957.00
2018-02-11T03:24:12.921Z,956.99
2018-02-11T03:25:12.860Z,956.95
2018-02-11T03:26:12.801Z,956.99
2018-02-11T03:27:12.733Z,956.94
2018-02-11T03:28:33.659Z,956.94
2018-02-11T03:29:12.613Z,956.90
2018-02-11T03:30:12.548Z,956.94
2018-02-11T03:31:12.495Z,956.95
2018-02-11T03:32:12.425Z,956.94
2018-02-11T03:33:12.361Z,956.91
2018-02-11T03:34:33.289Z,956.95
2018-02-11T03:35:12.241Z,956.97
2018-02-11T03:36:12.172Z,956.98
2018-02-11T03:37:12.114Z,957.00
2018-02-11T03:38:12.053Z,956.96
2018-02-11T03:39:11.986Z,956.94
2018-02-11T03:40:32.921Z,956.96
2018-02-11T03:41:11.868Z,956.92
2018-02-11T03:42:11.835Z,956.92
2018-02-11T03:43:11.741Z,956.93
2018-02-11T03:44:11.683Z,956.89
2018-02-11T03:45:11.612Z,956.91
2018-02-11T03:46:32.550Z,956.90
2018-02-11T03:47:11.499Z,956.87
2018-02-11T03:48:11.429Z,956.87
2018-02-11T03:49:11.374Z,956.87
2018-02-11T03:50:11.303Z,956.81
2018-02-11T03:51:11.243Z,956.83
2018-02-11T03:52:32.165Z,956.80
2018-02-11T03:53:11.117Z,956.81
2018-02-11T03:54:11.054Z,956.78
2018-02-11T03:55:10.999Z,956.77
2018-02-11T03:56:10.929Z,956.72
2018-02-11T03:57:10.870Z,956.71
2018-02-11T03:58:31.792Z,956.73
2018-02-11T03:59:10.744Z,956.65
2018-02-11T04:00:10.681Z,956.65
2018-02-11T04:01:10.617Z,956.68
2018-02-11T04:02:10.560Z,956.62
2018-02-11T04:03:10.498Z,956.63
2018-02-11T04:04:31.420Z,956.58
2018-02-11T04:05:10.372Z,956.56
2018-02-11T04:06:10.311Z,956.61
2018-02-11T04:07:10.244Z,956.63
2018-02-11T04:08:10.189Z,956.60
2018-02-11T04:09:10.120Z,956.58
2018-02-11T04:10:31.050Z,956.58
2018-02-11T04:11:10.007Z,956.56
2018-02-11T04:12:09.936Z,956.55
2018-02-11T04:13:09.871Z,956.59
2018-02-11T04:14:09.809Z,956.59
2018-02-11T04:15:09.749Z,956.59
2018-02-11T04:16:30.672Z,956.61
2018-02-11T04:17:09.625Z,956.60
2018-02-11T04:18:09.560Z,956.62
2018-02-11T04:19:09.501Z,956.55
2018-02-11T04:20:09.435Z,956.55
2018-02-11T04:21:09.373Z,956.55
2018-02-11T04:22:30.296Z,956.54
2018-02-11T04:23:09.251Z,956.50
2018-02-11T04:24:09.189Z,956.47
2018-02-11T04:25:09.126Z,956.42
2018-02-11T04:26:09.061Z,956.40
2018-02-11T04:27:09.001Z,956.35
2018-02-11T04:28:29.922Z,956.37
2018-02-11T04:29:08.876Z,956.40
2018-02-11T04:30:08.813Z,956.41
2018-02-11T04:31:08.754Z,956.36
2018-02-11T04:32:08.687Z,956.32
2018-02-11T04:33:08.626Z,956.34
2018-02-11T04:34:29.552Z,956.36
2018-02-11T04:35:08.501Z,956.30
2018-02-11T04:36:08.440Z,956.32
2018-02-11T04:37:08.379Z,956.34
2018-02-11T04:38:08.317Z,956.32
2018-02-11T04:39:08.258Z,956.28
2018-02-11T04:40:29.185Z,956.26
2018-02-11T04:41:08.132Z,956.25
2018-02-11T04:42:08.075Z,956.26
2018-02-11T04:43:08.007Z,956.21
2018-02-11T04:44:07.946Z,956.23
2018-02-11T04:45:07.887Z,956.23
2018-02-11T04:46:28.803Z,956.22
2018-02-11T04:47:07.764Z,956.19
2018-02-11T04:48:07.706Z,956.19
2018-02-11T04:49:07.630Z,956.23
2018-02-11T04:50:07.580Z,956.18
2018-02-11T04:51:07.517Z,956.17
2018-02-11T04:52:28.430Z,956.13
2018-02-11T04:53:07.382Z,956.14
2018-02-11T04:54:07.322Z,956.13
2018-02-11T04:55:07.258Z,956.07
2018-02-11T04:56:07.197Z,956.08
2018-02-11T04:57:07.130Z,956.07
2018-02-11T04:58:28.058Z,956.07
2018-02-11T04:59:07.007Z,956.04
2018-02-11T05:00:06.945Z,956.03
2018-02-11T05:01:06.887Z,956.01
2018-02-11T05:02:06.821Z,955.94
2018-02-11T05:03:06.758Z,955.93
2018-02-11T05:04:27.684Z,955.97
2018-02-11T05:05:06.635Z,955.96
2018-02-11T05:06:06.571Z,955.97
2018-02-11T05:07:06.508Z,955.97
2018-02-11T05:08:06.451Z,955.96
2018-02-11T05:09:06.388Z,955.96
2018-02-11T05:10:27.314Z,955.96
2018-02-11T05:11:06.260Z,955.95
2018-02-11T05:12:06.202Z,955.95
2018-02-11T05:13:06.138Z,955.94
2018-02-11T05:14:06.084Z,955.96
2018-02-11T05:15:06.013Z,955.90
2018-02-11T05:16:26.938Z,955.96
2018-02-11T05:17:05.887Z,955.92
2018-02-11T05:18:05.835Z,955.93
2018-02-11T05:19:05.764Z,955.87
2018-02-11T05:20:05.701Z,955.94
2018-02-11T05:21:05.637Z,955.88
2018-02-11T05:22:26.567Z,955.84
2018-02-11T05:23:05.521Z,955.87
2018-02-11T05:24:05.455Z,955.88
2018-02-11T05:25:05.392Z,955.85
2018-02-11T05:26:05.334Z,955.86
2018-02-11T05:27:05.265Z,955.82
2018-02-11T05:28:26.202Z,955.88
2018-02-11T05:29:05.139Z,955.84
2018-02-11T05:30:05.078Z,955.85
2018-02-11T05:31:05.029Z,955.84
2018-02-11T05:32:04.952Z,955.77
2018-02-11T05:33:04.892Z,955.83
2018-02-11T05:34:25.836Z,955.85
2018-02-11T05:35:04.767Z,955.80
2018-02-11T05:36:04.705Z,955.83
2018-02-11T05:37:04.654Z,955.81
2018-02-11T05:38:04.580Z,955.77
2018-02-11T05:39:04.520Z,955.79
2018-02-11T05:40:25.444Z,955.76
2018-02-11T05:41:04.395Z,955.76
2018-02-11T05:42:04.337Z,955.77
2018-02-11T05:43:04.270Z,955.73
2018-02-11T05:44:04.205Z,955.76
2018-02-11T05:45:04.153Z,955.73
2018-02-11T05:46:25.068Z,955.72
2018-02-11T05:47:04.018Z,955.73
2018-02-11T05:48:03.968Z,955.73
2018-02-11T05:49:03.895Z,955.67
2018-02-11T05:50:03.831Z,955.66
2018-02-11T05:51:03.781Z,955.64
2018-02-11T05:52:24.695Z,955.63
2018-02-11T05:53:03.645Z,955.64
2018-02-11T05:54:03.584Z,955.57
2018-02-11T05:55:03.522Z,955.61
2018-02-11T05:56:03.460Z,955.62
2018-02-11T05:57:03.393Z,955.61
2018-02-11T05:58:24.321Z,955.60
2018-02-11T05:59:03.269Z,955.57
2018-02-11T06:00:03.217Z,955.57
2018-02-11T06:01:03.147Z,955.53
2018-02-11T06:02:03.090Z,955.52
2018-02-11T06:03:03.035Z,955.48
2018-02-11T06:04:23.944Z,955.48
2018-02-11T06:05:02.907Z,955.50
2018-02-11T06:06:02.835Z,955.50
2018-02-11T06:07:02.774Z,955.46
2018-02-11T06:08:02.720Z,955.46
2018-02-11T06:09:02.649Z,955.44
2018-02-11T06:10:23.572Z,955.43
2018-02-11T06:11:02.526Z,955.45
2018-02-11T06:12:02.459Z,955.41
2018-02-11T06:13:02.397Z,955.45
2018-02-11T06:14:02.334Z,955.37
2018-02-11T06:15:02.272Z,955.36
2018-02-11T06:16:23.196Z,955.37
2018-02-11T06:17:02.152Z,955.37
2018-02-11T06:18:02.092Z,955.38
2018-02-11T06:19:02.024Z,955.34
2018-02-11T06:20:01.965Z,955.33
2018-02-11T06:21:01.901Z,955.34
2018-02-11T06:22:22.825Z,955.31
2018-02-11T06:23:01.775Z,955.32
2018-02-11T06:24:01.718Z,955.31
2018-02-11T06:25:01.651Z,955.32
2018-02-11T06:26:01.592Z,955.32
2018-02-11T06:27:01.525Z,955.27
2018-02-11T06:28:22.458Z,955.28
2018-02-11T06:29:01.405Z,955.27
2018-02-11T06:30:01.336Z,955.25
2018-02-11T06:31:01.279Z,955.23
2018-02-11T06:32:01.219Z,955.24
2018-02-11T06:33:01.149Z,955.25
2018-02-11T06:34:22.081Z,955.29
2018-02-11T06:35:01.028Z,955.29
2018-02-11T06:36:00.961Z,955.29
2018-02-11T06:37:00.911Z,955.26
2018-02-11T06:38:00.839Z,955.28
2018-02-11T06:39:00.787Z,955.30
2018-02-11T06:40:21.699Z,955.27
2018-02-11T06:41:00.653Z,955.24
2018-02-11T06:42:00.593Z,955.26
2018-02-11T06:43:00.525Z,955.22
2018-02-11T06:44:00.465Z,955.25
2018-02-11T06:45:00.403Z,955.22
2018-02-11T06:46:21.328Z,955.21
2018-02-11T06:47:00.280Z,955.18
2018-02-11T06:48:00.213Z,955.17
2018-02-11T06:49:00.157Z,955.17
2018-02-11T06:50:00.089Z,955.16
2018-02-11T06:51:00.028Z,955.16
2018-02-11T06:52:20.950Z,955.13
2018-02-11T06:52:59.904Z,955.12
2018-02-11T06:53:59.840Z,955.10
2018-02-11T06:54:59.776Z,955.12
2018-02-11T06:55:59.717Z,955.05
2018-02-11T06:56:59.649Z,955.03
2018-02-11T06:58:20.576Z,955.04
2018-02-11T06:58:59.528Z,955.02
2018-02-11T06:59:59.465Z,955.04
2018-02-11T07:00:59.401Z,955.02
2018-02-11T07:01:59.341Z,954.98
2018-02-11T07:02:59.276Z,954.97
2018-02-11T07:04:20.205Z,954.98
2018-02-11T07:04:59.166Z,954.94
2018-02-11T07:05:59.093Z,954.92
2018-02-11T07:06:59.027Z,954.88
2018-02-11T07:07:58.969Z,954.88
2018-02-11T07:08:58.905Z,954.82
2018-02-11T07:10:19.826Z,954.84
2018-02-11T07:10:58.785Z,954.76
2018-02-11T07:11:58.717Z,954.79
2018-02-11T07:12:58.662Z,954.77
2018-02-11T07:13:58.592Z,954.78
2018-02-11T07:14:58.533Z,954.77
2018-02-11T07:16:19.452Z,954.75
2018-02-11T07:16:58.411Z,954.76
2018-02-11T07:17:58.350Z,954.80
2018-02-11T07:18:58.283Z,954.76
2018-02-11T07:19:58.225Z,954.77
2018-02-11T07:20:58.154Z,954.76
2018-02-11T07:22:19.081Z,954.74
2018-02-11T07:22:58.041Z,954.70
2018-02-11T07:23:57.968Z,954.72
2018-02-11T07:24:57.903Z,954.73
2018-02-11T07:25:57.842Z,954.71
2018-02-11T07:26:57.781Z,954.67
2018-02-11T07:28:18.706Z,954.64
2018-02-11T07:28:57.659Z,954.64
2018-02-11T07:29:57.595Z,954.62
2018-02-11T07:30:57.531Z,954.66
2018-02-11T07:31:57.477Z,954.65
2018-02-11T07:32:57.407Z,954.67
2018-02-11T07:34:18.334Z,954.68
2018-02-11T07:34:57.282Z,954.66
2018-02-11T07:35:57.221Z,954.64
2018-02-11T07:36:57.156Z,954.63
2018-02-11T07:37:57.095Z,954.59
2018-02-11T07:38:57.042Z,954.55
2018-02-11T07:40:17.960Z,954.57
2018-02-11T07:40:56.913Z,954.52
2018-02-11T07:41:56.850Z,954.52
2018-02-11T07:42:56.785Z,954.55
2018-02-11T07:43:56.731Z,954.55
2018-02-11T07:44:56.659Z,954.50
2018-02-11T07:46:17.583Z,954.44
2018-02-11T07:46:56.540Z,954.43
2018-02-11T07:47:56.477Z,954.50
2018-02-11T07:48:56.413Z,954.47
2018-02-11T07:49:56.354Z,954.48
2018-02-11T07:50:56.292Z,954.48
2018-02-11T07:52:17.211Z,954.46
2018-02-11T07:52:56.172Z,954.48
2018-02-11T07:53:56.100Z,954.40
2018-02-11T07:54:56.038Z,954.45
2018-02-11T07:55:55.976Z,954.42
2018-02-11T07:56:55.914Z,954.40
2018-02-11T07:58:16.838Z,954.41
2018-02-11T07:58:55.792Z,954.40
2018-02-11T07:59:55.729Z,954.41
2018-02-11T08:00:55.666Z,954.35
2018-02-11T08:01:55.604Z,954.36
2018-02-11T08:02:55.540Z,954.34
2018-02-11T08:04:16.466Z,954.29
2018-02-11T08:04:55.416Z,954.32
2018-02-11T08:05:55.357Z,954.34
2018-02-11T08:06:55.296Z,954.32
2018-02-11T08:07:55.232Z,954.35
2018-02-11T08:08:55.167Z,954.30
2018-02-11T08:10:16.101Z,954.27
2018-02-11T08:10:55.048Z,954.20
2018-02-11T08:11:54.982Z,954.23
2018-02-11T08:12:54.922Z,954.22
2018-02-11T08:13:54.858Z,954.22
2018-02-11T08:14:54.795Z,954.21
2018-02-11T08:16:15.721Z,954.21
2018-02-11T08:16:54.672Z,954.18
2018-02-11T08:17:54.613Z,954.19
2018-02-11T08:18:54.553Z,954.19
2018-02-11T08:19:54.487Z,954.17
2018-02-11T08:20:54.426Z,954.18
2018-02-11T08:22:15.353Z,954.20
2018-02-11T08:22:54.303Z,954.18
2018-02-11T08:23:54.243Z,954.22
2018-02-11T08:24:54.186Z,954.23
2018-02-11T08:25:54.116Z,954.22
2018-02-11T08:26:54.058Z,954.18
2018-02-11T08:28:14.984Z,954.20
2018-02-11T08:28:53.929Z,954.18
2018-02-11T08:29:53.874Z,954.15
2018-02-11T08:30:53.814Z,954.14
2018-02-11T08:31:53.747Z,954.13
2018-02-11T08:32:53.688Z,954.11
2018-02-11T08:34:14.620Z,954.11
2018-02-11T08:34:53.563Z,954.12
2018-02-11T08:35:53.506Z,954.09
2018-02-11T08:36:53.447Z,954.03
2018-02-11T08:37:53.375Z,953.96
2018-02-11T08:38:53.324Z,954.01
2018-02-11T08:40:14.253Z,953.97
2018-02-11T08:40:53.190Z,953.98
2018-02-11T08:41:53.126Z,953.95
2018-02-11T08:42:53.077Z,953.98
2018-02-11T08:43:53.005Z,953.99
2018-02-11T08:44:52.956Z,953.99
2018-02-11T08:46:13.873Z,953.97
2018-02-11T08:46:52.820Z,953.92
2018-02-11T08:47:52.770Z,953.91
2018-02-11T08:48:52.713Z,953.92
2018-02-11T08:49:52.635Z,953.86
2018-02-11T08:50:52.588Z,953.86
2018-02-11T08:52:13.498Z,953.75
2018-02-11T08:52:52.451Z,953.74
2018-02-11T08:53:52.404Z,953.71
2018-02-11T08:54:52.342Z,953.72
2018-02-11T08:55:52.265Z,953.71
2018-02-11T08:56:52.218Z,953.67
2018-02-11T08:58:13.131Z,953.71
2018-02-11T08:58:52.085Z,953.66
2018-02-11T08:59:52.033Z,953.68
2018-02-11T09:00:51.986Z,953.69
2018-02-11T09:01:51.898Z,953.67
2018-02-11T09:02:51.850Z,953.64
2018-02-11T09:04:12.761Z,953.63
2018-02-11T09:04:51.713Z,953.63
2018-02-11T09:05:51.663Z,953.65
2018-02-11T09:06:51.600Z,953.60
2018-02-11T09:07:51.526Z,953.61
2018-02-11T09:08:51.478Z,953.59
2018-02-11T09:10:12.408Z,953.62
2018-02-11T09:10:51.345Z,953.64
2018-02-11T09:11:51.295Z,953.64
2018-02-11T09:12:51.248Z,953.65
2018-02-11T09:13:51.158Z,953.63
2018-02-11T09:14:51.109Z,953.68
2018-02-11T09:16:12.039Z,953.60
2018-02-11T09:16:50.980Z,953.58
2018-02-11T09:17:50.920Z,953.62
2018-02-11T09:18:50.853Z,953.59
2018-02-11T09:19:50.793Z,953.53
2018-02-11T09:20:50.736Z,953.56
2018-02-11T09:22:11.667Z,953.56
2018-02-11T09:22:50.612Z,953.59
2018-02-11T09:23:50.553Z,953.58
2018-02-11T09:24:50.493Z,953.54
2018-02-11T09:25:50.424Z,953.53
2018-02-11T09:26:50.366Z,953.54
2018-02-11T09:28:11.309Z,953.54
2018-02-11T09:28:50.238Z,953.54
2018-02-11T09:29:50.184Z,953.55
2018-02-11T09:30:50.124Z,953.51
2018-02-11T09:31:50.056Z,953.52
2018-02-11T09:32:50.000Z,953.50
2018-02-11T09:34:10.922Z,953.55
2018-02-11T09:34:49.871Z,953.45
2018-02-11T09:35:49.819Z,953.48
2018-02-11T09:36:49.760Z,953.44
2018-02-11T09:37:49.687Z,953.46
2018-02-11T09:38:49.632Z,953.42
2018-02-11T09:40:10.552Z,953.44
2018-02-11T09:40:49.507Z,953.40
2018-02-11T09:41:49.450Z,953.39
2018-02-11T09:42:49.386Z,953.43
2018-02-11T09:43:49.321Z,953.38
2018-02-11T09:44:49.262Z,953.37
2018-02-11T09:46:10.186Z,953.38
2018-02-11T09:46:49.139Z,953.38
2018-02-11T09:47:49.078Z,953.38
2018-02-11T09:48:49.021Z,953.36
2018-02-11T09:49:48.952Z,953.41
2018-02-11T09:50:48.894Z,953.37
2018-02-11T09:52:09.817Z,953.37
2018-02-11T09:52:48.766Z,953.36
2018-02-11T09:53:48.708Z,953.35
2018-02-11T09:54:48.652Z,953.32
2018-02-11T09:55:48.585Z,953.36
2018-02-11T09:56:48.529Z,953.33
2018-02-11T09:58:09.451Z,953.32
2018-02-11T09:58:48.400Z,953.25
2018-02-11T09:59:48.340Z,953.21
2018-02-11T10:00:48.281Z,953.18
2018-02-11T10:01:48.216Z,953.13
2018-02-11T10:02:48.158Z,953.05
2018-02-11T10:04:09.091Z,953.07
2018-02-11T10:04:48.046Z,953.03
2018-02-11T10:05:47.978Z,953.01
2018-02-11T10:06:47.915Z,953.03
2018-02-11T10:07:47.852Z,952.95
2018-02-11T10:08:47.791Z,953.03
2018-02-11T10:10:08.723Z,953.00
2018-02-11T10:10:47.667Z,952.97
2018-02-11T10:11:47.606Z,952.97
2018-02-11T10:12:47.542Z,952.93
2018-02-11T10:13:47.480Z,952.88
2018-02-11T10:14:47.422Z,952.87
2018-02-11T10:16:08.353Z,952.90
2018-02-11T10:16:47.296Z,952.87
2018-02-11T10:17:47.238Z,952.88
2018-02-11T10:18:47.183Z,952.88
2018-02-11T10:19:47.127Z,952.85
2018-02-11T10:20:47.054Z,952.86
2018-02-11T10:22:07.985Z,952.84
2018-02-11T10:22:46.939Z,952.85
2018-02-11T10:23:46.874Z,952.84
2018-02-11T10:24:46.810Z,952.81
2018-02-11T10:25:46.755Z,952.83
2018-02-11T10:26:46.693Z,952.81
2018-02-11T10:28:07.617Z,952.84
2018-02-11T10:28:46.570Z,952.82
2018-02-11T10:29:46.508Z,952.82
2018-02-11T10:30:46.447Z,952.90
2018-02-11T10:31:46.381Z,952.87
2018-02-11T10:32:46.325Z,952.88
2018-02-11T10:34:07.253Z,952.91
2018-02-11T10:34:46.199Z,952.88
2018-02-11T10:35:46.135Z,952.89
2018-02-11T10:36:46.076Z,952.92
2018-02-11T10:37:46.015Z,952.90
2018-02-11T10:38:45.957Z,952.90
2018-02-11T10:40:06.881Z,952.90
2018-02-11T10:40:45.838Z,952.88
2018-02-11T10:41:45.770Z,952.91
2018-02-11T10:42:45.708Z,952.90
2018-02-11T10:43:45.650Z,952.90
2018-02-11T10:44:45.587Z,952.91
2018-02-11T10:46:06.518Z,952.89
2018-02-11T10:46:45.466Z,952.93
2018-02-11T10:47:45.403Z,952.81
2018-02-11T10:48:45.344Z,952.82
2018-02-11T10:49:45.284Z,952.90
2018-02-11T10:50:45.221Z,952.88
2018-02-11T10:52:06.147Z,952.81
2018-02-11T10:52:45.099Z,952.82
2018-02-11T10:53:45.038Z,952.79
2018-02-11T10:54:44.977Z,952.79
2018-02-11T10:55:44.914Z,952.73
2018-02-11T10:56:44.854Z,952.70
2018-02-11T10:58:05.782Z,952.68
2018-02-11T10:58:44.734Z,952.71
2018-02-11T10:59:44.676Z,952.69
2018-02-11T11:00:44.610Z,952.73
2018-02-11T11:01:44.550Z,952.65
2018-02-11T11:02:44.483Z,952.67
2018-02-11T11:04:05.413Z,952.67
2018-02-11T11:04:44.365Z,952.71
2018-02-11T11:05:44.304Z,952.60
2018-02-11T11:06:44.241Z,952.62
2018-02-11T11:07:44.181Z,952.59
2018-02-11T11:08:44.121Z,952.61
2018-02-11T11:10:05.046Z,952.60
2018-02-11T11:10:43.997Z,952.58
2018-02-11T11:11:43.942Z,952.51
2018-02-11T11:12:43.878Z,952.55
2018-02-11T11:13:43.818Z,952.56
2018-02-11T11:14:43.752Z,952.52
2018-02-11T11:16:04.681Z,952.56
2018-02-11T11:16:43.632Z,952.50
2018-02-11T11:17:43.571Z,952.48
2018-02-11T11:18:43.508Z,952.54
2018-02-11T11:19:43.451Z,952.52
2018-02-11T11:20:43.389Z,952.50
2018-02-11T11:22:04.316Z,952.50
2018-02-11T11:22:43.268Z,952.44
2018-02-11T11:23:43.204Z,952.50
2018-02-11T11:24:43.144Z,952.43
2018-02-11T11:25:43.083Z,952.45
2018-02-11T11:26:43.020Z,952.46
2018-02-11T11:28:03.950Z,952.44
2018-02-11T11:28:42.902Z,952.38
2018-02-11T11:29:42.839Z,952.39
2018-02-11T11:30:42.779Z,952.42
2018-02-11T11:31:42.722Z,952.37
2018-02-11T11:32:42.656Z,952.42
2018-02-11T11:34:03.586Z,952.42
2018-02-11T11:34:42.539Z,952.36
2018-02-11T11:35:42.473Z,952.33
2018-02-11T11:36:42.413Z,952.37
2018-02-11T11:37:42.348Z,952.36
2018-02-11T11:38:42.329Z,952.32
2018-02-11T11:40:03.218Z,952.34
2018-02-11T11:40:42.179Z,952.29
2018-02-11T11:41:42.110Z,952.28
2018-02-11T11:42:42.048Z,952.24
2018-02-11T11:43:41.999Z,952.26
2018-02-11T11:44:41.931Z,952.23
2018-02-11T11:46:02.854Z,952.20
2018-02-11T11:46:41.809Z,952.20
2018-02-11T11:47:41.744Z,952.18
2018-02-11T11:48:41.682Z,952.21
2018-02-11T11:49:41.622Z,952.16
2018-02-11T11:50:41.558Z,952.19
2018-02-11T11:52:02.488Z,952.16
2018-02-11T11:52:41.436Z,952.13
2018-02-11T11:53:41.377Z,952.13
2018-02-11T11:54:41.318Z,952.11
2018-02-11T11:55:41.254Z,952.08
2018-02-11T11:56:41.197Z,952.05
2018-02-11T11:58:02.119Z,952.07
2018-02-11T11:58:41.071Z,952.05
2018-02-11T11:59:41.012Z,952.09
2018-02-11T12:00:40.950Z,952.04
2018-02-11T12:01:40.889Z,952.08
2018-02-11T12:02:40.829Z,952.07
2018-02-11T12:04:01.754Z,951.99
2018-02-11T12:04:40.708Z,952.06
2018-02-11T12:05:40.646Z,951.99
2018-02-11T12:06:40.586Z,952.00
2018-02-11T12:07:40.528Z,952.01
2018-02-11T12:08:40.462Z,951.98
2018-02-11T12:10:01.392Z,951.98
2018-02-11T12:10:40.344Z,951.96
2018-02-11T12:11:40.286Z,951.95
2018-02-11T12:12:40.219Z,951.94
2018-02-11T12:13:40.160Z,951.96
2018-02-11T12:14:40.100Z,951.95
2018-02-11T12:16:01.026Z,951.93
2018-02-11T12:16:40.036Z,951.83
2018-02-11T12:17:39.917Z,951.91
2018-02-11T12:18:39.854Z,951.88
2018-02-11T12:19:39.798Z,951.86
2018-02-11T12:20:39.735Z,951.85
2018-02-11T12:22:00.661Z,951.83
2018-02-11T12:22:39.613Z,951.79
2018-02-11T12:23:39.554Z,951.79
2018-02-11T12:24:39.491Z,951.75
2018-02-11T12:25:39.429Z,951.75
2018-02-11T12:26:39.370Z,951.72
2018-02-11T12:28:00.299Z,951.72